createdAt,value
2023-03-16T00:00:31.890Z,9.37
2023-03-16T00:01:33.580Z,8.87
2023-03-16T00:02:34.977Z,9.00
2023-03-16T00:03:36.491Z,8.97
2023-03-16T00:04:38.179Z,8.17
2023-03-16T00:05:39.928Z,9.10
2023-03-16T00:06:41.509Z,8.80
2023-03-16T00:07:43.626Z,9.20
2023-03-16T00:08:48.070Z,8.77
2023-03-16T00:09:50.712Z,8.43
2023-03-16T00:10:54.373Z,8.87
2023-03-16T00:11:58.794Z,9.07
2023-03-16T00:13:00.495Z,9.23
2023-03-16T00:14:04.365Z,9.33
2023-03-16T00:15:16.428Z,9.50
2023-03-16T00:16:19.210Z,8.57
2023-03-16T00:17:24.164Z,9.00
2023-03-16T00:18:32.731Z,9.40
2023-03-16T00:19:39.173Z,8.77
2023-03-16T00:20:44.572Z,8.90
2023-03-16T00:22:09.433Z,8.80
2023-03-16T00:23:11.927Z,8.40
2023-03-16T00:24:29.597Z,8.90
2023-03-16T00:25:40.553Z,8.50
2023-03-16T00:26:48.814Z,9.10
2023-03-16T00:27:51.792Z,9.07
2023-03-16T00:28:54.549Z,7.97
2023-03-16T00:30:06.431Z,8.43
2023-03-16T00:31:15.628Z,8.23
2023-03-16T00:32:27.747Z,8.80
2023-03-16T00:33:44.286Z,8.67
2023-03-16T00:35:00.745Z,9.03
2023-03-16T00:36:08.425Z,8.67
2023-03-16T00:37:15.933Z,9.80
2023-03-16T00:38:18.369Z,9.03
2023-03-16T00:39:20.742Z,9.37
2023-03-16T00:40:25.145Z,9.37
2023-03-16T00:41:26.956Z,10.50
2023-03-16T00:42:34.559Z,10.23
2023-03-16T00:43:44.984Z,10.03
2023-03-16T00:44:46.970Z,9.93
2023-03-16T00:45:51.963Z,10.57
2023-03-16T00:46:53.797Z,10.33
2023-03-16T00:47:55.880Z,10.30
2023-03-16T00:49:06.364Z,11.03
2023-03-16T00:50:19.787Z,10.50
2023-03-16T00:51:26.124Z,9.77
2023-03-16T00:52:28.818Z,10.33
2023-03-16T00:53:36.908Z,9.83
2023-03-16T00:54:42.049Z,9.50
2023-03-16T00:55:46.789Z,9.87
2023-03-16T00:56:51.653Z,10.37
2023-03-16T00:57:55.056Z,10.07
2023-03-16T00:59:02.842Z,10.13
2023-03-16T01:00:13.089Z,10.60
2023-03-16T01:01:16.519Z,10.10
2023-03-16T01:02:26.928Z,10.33
2023-03-16T01:03:28.823Z,10.50
2023-03-16T01:04:34.356Z,9.90
2023-03-16T01:05:40.208Z,9.70
2023-03-16T01:06:42.221Z,10.33
2023-03-16T01:07:47.995Z,10.13
2023-03-16T01:08:53.316Z,9.80
2023-03-16T01:09:55.250Z,9.57
2023-03-16T01:10:57.558Z,9.70
2023-03-16T01:11:59.582Z,10.27
2023-03-16T01:13:06.294Z,10.80
2023-03-16T01:14:08.012Z,9.67
2023-03-16T01:15:10.065Z,10.00
2023-03-16T01:16:12.387Z,10.53
2023-03-16T01:17:17.720Z,10.27
2023-03-16T01:18:31.548Z,10.83
2023-03-16T01:21:15.865Z,10.53
2023-03-16T01:22:17.876Z,10.30
2023-03-16T01:23:23.571Z,9.77
2023-03-16T01:24:25.666Z,10.00
2023-03-16T01:25:36.618Z,11.13
2023-03-16T01:26:45.154Z,10.90
2023-03-16T01:27:47.984Z,12.40
2023-03-16T01:28:49.732Z,13.30
2023-03-16T01:29:52.583Z,13.27
2023-03-16T01:31:02.206Z,13.17
2023-03-16T01:32:11.334Z,13.67
2023-03-16T01:33:19.466Z,14.77
2023-03-16T01:34:47.706Z,13.97
2023-03-16T01:35:57.397Z,14.47
2023-03-16T01:36:59.806Z,15.37
2023-03-16T01:38:12.967Z,14.73
2023-03-16T01:39:15.422Z,14.87
2023-03-16T01:40:20.069Z,15.17
2023-03-16T01:41:28.102Z,15.20
2023-03-16T01:42:33.527Z,16.27
2023-03-16T01:43:37.557Z,15.70
2023-03-16T01:44:51.794Z,17.23
2023-03-16T01:46:25.014Z,15.60
2023-03-16T01:47:30.774Z,15.30
2023-03-16T01:48:39.377Z,15.77
2023-03-16T01:49:50.772Z,15.03
2023-03-16T01:50:56.544Z,15.20
2023-03-16T01:52:16.273Z,14.43
2023-03-16T01:53:18.621Z,14.63
2023-03-16T01:54:39.730Z,14.47
2023-03-16T01:55:42.664Z,14.70
2023-03-16T01:56:54.227Z,15.23
2023-03-16T01:57:59.569Z,15.30
2023-03-16T01:59:04.409Z,15.07
2023-03-16T02:00:23.804Z,14.80
2023-03-16T02:01:42.458Z,16.00
2023-03-16T02:02:55.524Z,15.53
2023-03-16T02:04:27.429Z,15.90
2023-03-16T02:05:42.947Z,15.83
2023-03-16T02:06:47.454Z,15.53
2023-03-16T02:07:59.994Z,15.97
2023-03-16T02:09:04.308Z,15.40
2023-03-16T02:10:06.692Z,14.70
2023-03-16T02:11:10.835Z,16.33
2023-03-16T02:12:20.624Z,15.70
2023-03-16T02:13:37.461Z,15.00
2023-03-16T02:14:49.619Z,15.00
2023-03-16T02:15:55.365Z,15.97
2023-03-16T02:17:08.578Z,15.63
2023-03-16T02:18:13.504Z,16.73
2023-03-16T02:19:31.200Z,16.27
2023-03-16T02:20:39.913Z,15.83
2023-03-16T02:21:54.757Z,16.77
2023-03-16T02:22:56.890Z,15.80
2023-03-16T02:24:00.142Z,16.30
2023-03-16T02:25:02.085Z,15.80
2023-03-16T02:26:05.338Z,17.47
2023-03-16T02:27:10.485Z,17.03
2023-03-16T02:28:25.752Z,16.80
2023-03-16T02:29:38.273Z,17.63
2023-03-16T02:30:40.087Z,16.43
2023-03-16T02:31:42.006Z,16.33
2023-03-16T02:32:46.001Z,16.53
2023-03-16T02:33:49.655Z,17.80
2023-03-16T02:34:52.145Z,17.03
2023-03-16T02:35:56.072Z,17.00
2023-03-16T02:36:59.616Z,18.30
2023-03-16T02:38:02.339Z,17.53
2023-03-16T02:39:09.332Z,16.70
2023-03-16T02:40:31.674Z,16.47
2023-03-16T02:41:37.076Z,16.47
2023-03-16T02:42:38.754Z,16.93
2023-03-16T02:44:04.368Z,16.77
2023-03-16T02:45:10.482Z,16.77
2023-03-16T02:46:12.467Z,16.47
2023-03-16T02:47:20.040Z,16.73
2023-03-16T02:48:25.814Z,17.17
2023-03-16T02:49:34.004Z,17.27
2023-03-16T02:50:35.624Z,16.37
2023-03-16T02:51:37.228Z,16.93
2023-03-16T02:52:39.254Z,17.40
2023-03-16T02:53:40.996Z,16.37
2023-03-16T02:54:42.740Z,16.27
2023-03-16T02:55:45.957Z,17.37
2023-03-16T02:56:50.510Z,17.20
2023-03-16T02:58:01.517Z,17.73
2023-03-16T02:59:03.313Z,16.40
2023-03-16T03:00:12.421Z,16.90
2023-03-16T03:01:15.240Z,16.37
2023-03-16T03:02:19.551Z,16.67
2023-03-16T03:03:24.970Z,16.20
2023-03-16T03:04:27.109Z,16.03
2023-03-16T03:05:28.775Z,15.90
2023-03-16T03:06:32.871Z,16.87
2023-03-16T03:07:35.679Z,16.83
2023-03-16T03:08:40.413Z,16.60
2023-03-16T03:09:44.983Z,16.63
2023-03-16T03:10:47.375Z,17.67
2023-03-16T03:11:49.325Z,16.13
2023-03-16T03:13:00.519Z,17.27
2023-03-16T03:14:02.626Z,16.00
2023-03-16T03:15:05.648Z,17.20
2023-03-16T03:16:14.584Z,17.10
2023-03-16T03:17:16.928Z,16.63
2023-03-16T03:18:18.729Z,16.37
2023-03-16T03:19:20.386Z,15.80
2023-03-16T03:20:24.088Z,15.97
2023-03-16T03:21:26.105Z,15.37
2023-03-16T03:22:28.656Z,16.33
2023-03-16T03:23:36.599Z,16.30
2023-03-16T03:24:45.429Z,17.10
2023-03-16T03:25:51.132Z,16.37
2023-03-16T03:27:00.070Z,16.63
2023-03-16T03:28:05.114Z,16.23
2023-03-16T03:29:06.946Z,16.23
2023-03-16T03:30:10.468Z,15.53
2023-03-16T03:31:20.023Z,16.50
2023-03-16T03:32:22.028Z,15.97
2023-03-16T03:33:23.997Z,16.50
2023-03-16T03:34:29.393Z,14.77
2023-03-16T03:35:43.261Z,15.60
2023-03-16T03:36:48.091Z,15.00
2023-03-16T03:37:52.303Z,15.00
2023-03-16T03:39:02.077Z,14.57
2023-03-16T03:40:06.149Z,14.30
2023-03-16T03:41:11.674Z,14.30
2023-03-16T03:42:32.614Z,14.63
2023-03-16T03:43:42.440Z,13.43
2023-03-16T03:44:51.588Z,13.50
2023-03-16T03:47:31.349Z,12.97
2023-03-16T03:48:34.527Z,12.00
2023-03-16T03:49:38.092Z,12.27
2023-03-16T03:52:51.975Z,11.47
2023-03-16T03:54:07.204Z,11.87
2023-03-16T03:55:50.091Z,11.97
2023-03-16T03:57:03.952Z,11.60
2023-03-16T03:58:17.395Z,10.47
2023-03-16T03:59:19.873Z,11.10
2023-03-16T04:00:45.924Z,10.77
2023-03-16T04:01:49.303Z,10.60
2023-03-16T04:03:00.628Z,10.60
2023-03-16T04:04:18.311Z,10.90
2023-03-16T04:05:19.814Z,10.40
2023-03-16T04:06:22.823Z,10.70
2023-03-16T04:07:24.190Z,10.80
2023-03-16T04:08:29.154Z,10.87
2023-03-16T04:09:33.880Z,11.20
2023-03-16T04:10:35.865Z,10.87
2023-03-16T04:11:37.857Z,10.60
2023-03-16T04:12:39.660Z,10.73
2023-03-16T04:13:43.089Z,11.07
2023-03-16T04:14:45.225Z,10.27
2023-03-16T04:15:46.973Z,11.17
2023-03-16T04:16:54.760Z,11.23
2023-03-16T04:17:56.285Z,11.00
2023-03-16T04:18:58.841Z,11.23
2023-03-16T04:20:01.962Z,11.10
2023-03-16T04:21:04.358Z,11.63
2023-03-16T04:22:06.555Z,11.37
2023-03-16T04:23:07.977Z,12.40
2023-03-16T04:24:14.782Z,11.50
2023-03-16T04:25:17.704Z,11.77
2023-03-16T04:26:20.698Z,11.93
2023-03-16T04:27:23.189Z,11.67
2023-03-16T04:28:26.344Z,11.77
2023-03-16T04:29:28.078Z,12.10
2023-03-16T04:30:31.855Z,11.70
2023-03-16T04:31:45.154Z,11.87
2023-03-16T04:32:47.612Z,11.47
2023-03-16T04:33:56.027Z,11.27
2023-03-16T04:34:58.218Z,11.30
2023-03-16T04:36:10.307Z,11.20
2023-03-16T04:37:13.312Z,11.30
2023-03-16T04:38:16.829Z,11.87
2023-03-16T04:39:26.786Z,11.27
2023-03-16T04:40:30.309Z,12.00
2023-03-16T04:41:39.374Z,11.77
2023-03-16T04:42:47.376Z,11.20
2023-03-16T04:43:53.133Z,11.60
2023-03-16T04:44:57.458Z,11.97
2023-03-16T04:45:58.858Z,11.77
2023-03-16T04:47:03.311Z,12.17
2023-03-16T04:48:11.170Z,11.70
2023-03-16T04:49:13.134Z,11.83
2023-03-16T04:50:17.658Z,11.90
2023-03-16T04:51:25.417Z,11.53
2023-03-16T04:52:38.228Z,12.17
2023-03-16T04:53:40.205Z,11.67
2023-03-16T04:54:51.852Z,11.63
2023-03-16T04:55:53.577Z,11.40
2023-03-16T04:58:18.708Z,11.23
2023-03-16T04:59:26.845Z,11.03
2023-03-16T05:00:49.194Z,10.97
2023-03-16T05:01:56.599Z,11.97
2023-03-16T05:02:58.031Z,11.60
2023-03-16T05:03:59.872Z,11.70
2023-03-16T05:05:03.110Z,11.47
2023-03-16T05:06:05.197Z,11.57
2023-03-16T05:07:08.342Z,12.57
2023-03-16T05:08:12.513Z,11.90
2023-03-16T05:09:16.106Z,11.77
2023-03-16T05:10:21.904Z,11.80
2023-03-16T05:11:23.284Z,12.30
2023-03-16T05:12:30.866Z,11.50
2023-03-16T05:13:36.248Z,12.10
2023-03-16T05:14:38.840Z,12.27
2023-03-16T05:16:03.617Z,11.70
2023-03-16T05:17:09.031Z,11.23
2023-03-16T05:18:10.405Z,12.07
2023-03-16T05:19:12.431Z,12.00
2023-03-16T05:20:16.193Z,11.60
2023-03-16T05:21:25.444Z,11.07
2023-03-16T05:22:33.154Z,13.27
2023-03-16T05:23:48.746Z,11.97
2023-03-16T05:24:50.098Z,12.03
2023-03-16T05:25:51.916Z,12.13
2023-03-16T05:26:55.504Z,11.83
2023-03-16T05:27:58.208Z,12.37
2023-03-16T05:29:05.777Z,11.87
2023-03-16T05:30:07.802Z,12.97
2023-03-16T05:31:09.901Z,12.37
2023-03-16T05:32:18.532Z,12.80
2023-03-16T05:33:21.634Z,12.23
2023-03-16T05:34:26.367Z,11.80
2023-03-16T05:35:28.158Z,12.37
2023-03-16T05:36:36.266Z,11.80
2023-03-16T05:37:43.322Z,12.13
2023-03-16T05:38:48.677Z,11.43
2023-03-16T05:40:00.260Z,12.17
2023-03-16T05:41:05.906Z,12.00
2023-03-16T05:42:19.950Z,12.10
2023-03-16T05:43:31.001Z,11.73
2023-03-16T05:44:33.677Z,11.83
2023-03-16T05:45:47.460Z,12.17
2023-03-16T05:46:52.137Z,12.83
2023-03-16T05:47:53.695Z,12.10
2023-03-16T05:48:55.323Z,12.53
2023-03-16T05:49:56.765Z,12.93
2023-03-16T05:51:07.124Z,12.73
2023-03-16T05:52:08.572Z,12.43
2023-03-16T05:53:10.590Z,11.60
2023-03-16T05:54:14.000Z,12.33
2023-03-16T05:55:20.209Z,11.90
2023-03-16T05:56:28.268Z,11.90
2023-03-16T05:57:30.375Z,11.30
2023-03-16T05:58:34.001Z,11.63
2023-03-16T05:59:36.008Z,11.63
2023-03-16T06:00:39.451Z,10.83
2023-03-16T06:01:51.989Z,11.60
2023-03-16T06:02:55.502Z,11.67
2023-03-16T06:04:05.430Z,11.20
2023-03-16T06:05:10.325Z,11.23
2023-03-16T06:06:15.420Z,11.50
2023-03-16T06:07:29.154Z,11.17
2023-03-16T06:08:30.782Z,10.83
2023-03-16T06:09:40.591Z,11.27
2023-03-16T06:10:47.971Z,10.70
2023-03-16T06:11:51.386Z,10.47
2023-03-16T06:12:53.389Z,10.20
2023-03-16T06:13:57.892Z,10.47
2023-03-16T06:14:59.418Z,10.97
2023-03-16T06:16:01.720Z,10.77
2023-03-16T06:17:03.144Z,10.33
2023-03-16T06:18:05.558Z,10.70
2023-03-16T06:19:07.015Z,10.93
2023-03-16T06:20:13.025Z,9.77
2023-03-16T06:21:16.123Z,10.70
2023-03-16T06:22:18.229Z,11.30
2023-03-16T06:23:21.303Z,10.10
2023-03-16T06:24:23.453Z,10.60
2023-03-16T06:25:25.897Z,10.43
2023-03-16T06:26:27.851Z,10.07
2023-03-16T06:27:29.839Z,10.17
2023-03-16T06:28:42.829Z,10.47
2023-03-16T06:29:44.222Z,10.10
2023-03-16T06:30:45.740Z,10.67
2023-03-16T06:31:47.213Z,9.77
2023-03-16T06:32:49.575Z,10.30
2023-03-16T06:33:51.508Z,9.83
2023-03-16T06:34:53.796Z,9.27
2023-03-16T06:35:55.676Z,10.33
2023-03-16T06:37:06.316Z,9.73
2023-03-16T06:38:08.132Z,9.70
2023-03-16T06:39:32.500Z,9.77
2023-03-16T06:40:34.146Z,9.03
2023-03-16T06:41:35.811Z,9.73
2023-03-16T06:42:37.424Z,9.47
2023-03-16T06:43:39.248Z,9.17
2023-03-16T06:44:41.383Z,9.53
2023-03-16T06:45:44.812Z,9.60
2023-03-16T06:46:46.214Z,9.03
2023-03-16T06:47:47.896Z,9.03
2023-03-16T06:48:49.865Z,9.30
2023-03-16T06:49:51.875Z,9.03
2023-03-16T06:50:55.983Z,8.73
2023-03-16T06:52:01.953Z,9.50
2023-03-16T06:53:03.389Z,8.60
2023-03-16T06:54:06.520Z,9.10
2023-03-16T06:55:12.803Z,9.20
2023-03-16T06:56:17.140Z,9.67
2023-03-16T06:57:20.199Z,9.30
2023-03-16T06:58:21.579Z,9.93
2023-03-16T06:59:23.130Z,9.30
2023-03-16T07:00:25.381Z,9.80
2023-03-16T07:01:26.939Z,9.57
2023-03-16T07:02:28.514Z,9.53
2023-03-16T07:03:30.224Z,9.40
2023-03-16T07:04:36.407Z,9.60
2023-03-16T07:05:37.942Z,10.10
2023-03-16T07:06:39.636Z,9.20
2023-03-16T07:07:42.688Z,8.87
2023-03-16T07:08:44.290Z,9.30
2023-03-16T07:09:46.241Z,9.57
2023-03-16T07:10:47.646Z,9.17
2023-03-16T07:11:49.082Z,8.80
2023-03-16T07:12:50.626Z,9.00
2023-03-16T07:13:52.068Z,9.17
2023-03-16T07:14:55.790Z,9.23
2023-03-16T07:15:59.565Z,9.60
2023-03-16T07:17:01.709Z,8.97
2023-03-16T07:18:03.791Z,9.03
2023-03-16T07:19:05.166Z,8.90
2023-03-16T07:20:10.398Z,9.67
2023-03-16T07:21:12.288Z,9.63
2023-03-16T07:22:13.780Z,9.47
2023-03-16T07:23:15.963Z,9.27
2023-03-16T07:24:19.415Z,9.13
2023-03-16T07:26:29.666Z,8.90
2023-03-16T07:27:57.515Z,8.67
2023-03-16T07:29:21.899Z,8.70
2023-03-16T07:30:25.241Z,8.30
2023-03-16T07:31:27.446Z,8.63
2023-03-16T07:32:32.466Z,8.63
2023-03-16T07:33:34.951Z,8.73
2023-03-16T07:34:39.457Z,8.57
2023-03-16T07:35:41.725Z,8.97
2023-03-16T07:36:43.918Z,9.07
2023-03-16T07:37:46.084Z,8.67
2023-03-16T07:38:47.521Z,8.33
2023-03-16T07:39:49.227Z,8.90
2023-03-16T07:40:52.662Z,8.13
2023-03-16T07:41:56.850Z,7.97
2023-03-16T07:43:17.131Z,8.20
2023-03-16T07:44:24.610Z,8.50
2023-03-16T07:45:27.098Z,8.93
2023-03-16T07:46:30.941Z,8.17
2023-03-16T07:47:33.560Z,8.77
2023-03-16T07:48:42.578Z,8.33
2023-03-16T07:49:44.214Z,8.87
2023-03-16T07:50:47.145Z,8.60
2023-03-16T07:51:49.265Z,9.07
2023-03-16T07:52:54.379Z,7.77
2023-03-16T07:53:55.706Z,8.07
2023-03-16T07:55:05.377Z,8.87
2023-03-16T07:56:07.916Z,7.93
2023-03-16T07:57:13.392Z,7.70
2023-03-16T07:58:18.203Z,8.07
2023-03-16T07:59:21.454Z,7.93
2023-03-16T08:00:24.200Z,7.57
2023-03-16T08:01:25.881Z,7.87
2023-03-16T08:02:27.379Z,7.37
2023-03-16T08:03:29.767Z,8.47
2023-03-16T08:04:33.361Z,8.07
2023-03-16T08:05:38.358Z,7.20
2023-03-16T08:06:45.554Z,7.70
2023-03-16T08:07:47.062Z,7.77
2023-03-16T08:08:53.303Z,7.70
2023-03-16T08:10:02.172Z,7.73
2023-03-16T08:11:12.201Z,7.37
2023-03-16T08:12:27.697Z,7.93
2023-03-16T08:13:32.271Z,7.73
2023-03-16T08:14:37.078Z,7.60
2023-03-16T08:15:48.690Z,7.47
2023-03-16T08:16:57.721Z,7.43
2023-03-16T08:18:04.185Z,7.23
2023-03-16T08:19:05.608Z,7.60
2023-03-16T08:20:10.201Z,7.20
2023-03-16T08:21:11.817Z,6.83
2023-03-16T08:22:13.252Z,7.47
2023-03-16T08:23:18.292Z,6.90
2023-03-16T08:24:21.083Z,7.03
2023-03-16T08:25:22.894Z,7.23
2023-03-16T08:26:44.484Z,7.40
2023-03-16T08:27:46.221Z,7.53
2023-03-16T08:28:51.945Z,7.67
2023-03-16T08:29:53.503Z,7.43
2023-03-16T08:30:58.488Z,7.70
2023-03-16T08:32:20.595Z,7.13
2023-03-16T08:33:23.569Z,7.53
2023-03-16T08:34:27.300Z,7.30
2023-03-16T08:35:29.024Z,7.50
2023-03-16T08:36:30.377Z,8.03
2023-03-16T08:37:32.932Z,7.40
2023-03-16T08:38:35.100Z,7.50
2023-03-16T08:39:42.382Z,6.80
2023-03-16T08:40:48.414Z,7.13
2023-03-16T08:41:51.063Z,7.00
2023-03-16T08:43:04.225Z,7.20
2023-03-16T08:44:07.694Z,7.43
2023-03-16T08:45:14.114Z,7.40
2023-03-16T08:46:17.523Z,7.00
2023-03-16T08:47:24.506Z,7.20
2023-03-16T08:48:26.448Z,6.90
2023-03-16T08:49:29.394Z,7.07
2023-03-16T08:50:37.607Z,6.90
2023-03-16T08:51:39.195Z,6.50
2023-03-16T08:52:40.831Z,7.67
2023-03-16T08:53:42.234Z,7.33
2023-03-16T08:54:59.815Z,7.33
2023-03-16T08:56:07.772Z,7.10
2023-03-16T08:57:10.514Z,6.87
2023-03-16T08:58:12.737Z,7.07
2023-03-16T08:59:27.369Z,6.80
2023-03-16T09:00:31.389Z,7.23
2023-03-16T09:01:34.067Z,7.70
2023-03-16T09:02:38.431Z,7.47
2023-03-16T09:03:40.630Z,7.27
2023-03-16T09:04:42.104Z,7.90
2023-03-16T09:05:43.552Z,7.10
2023-03-16T09:06:45.638Z,7.10
2023-03-16T09:07:49.010Z,7.60
2023-03-16T09:08:50.660Z,7.37
2023-03-16T09:09:52.671Z,7.30
2023-03-16T09:11:05.624Z,8.27
2023-03-16T09:12:07.168Z,7.50
2023-03-16T09:13:08.688Z,7.57
2023-03-16T09:14:11.746Z,7.67
2023-03-16T09:15:14.061Z,7.30
2023-03-16T09:16:15.802Z,7.97
2023-03-16T09:17:17.220Z,7.43
2023-03-16T09:18:19.602Z,7.63
2023-03-16T09:19:22.342Z,7.17
2023-03-16T09:20:26.972Z,7.13
2023-03-16T09:21:31.284Z,6.93
2023-03-16T09:22:32.923Z,7.57
2023-03-16T09:23:37.465Z,8.23
2023-03-16T09:24:39.351Z,6.70
2023-03-16T09:25:41.079Z,7.20
2023-03-16T09:26:42.635Z,6.50
2023-03-16T09:27:44.644Z,6.77
2023-03-16T09:28:46.653Z,6.73
2023-03-16T09:29:48.756Z,7.33
2023-03-16T09:30:50.483Z,6.80
2023-03-16T09:31:51.925Z,7.47
2023-03-16T09:32:54.480Z,6.73
2023-03-16T09:33:55.882Z,6.30
2023-03-16T09:34:57.387Z,6.77
2023-03-16T09:35:58.782Z,6.63
2023-03-16T09:37:03.721Z,6.47
2023-03-16T09:38:06.601Z,6.57
2023-03-16T09:39:08.745Z,7.00
2023-03-16T09:40:28.969Z,6.87
2023-03-16T09:41:36.212Z,7.10
2023-03-16T09:42:40.950Z,6.63
2023-03-16T09:43:43.310Z,6.67
2023-03-16T09:44:47.192Z,6.70
2023-03-16T09:46:10.541Z,6.90
2023-03-16T09:47:12.282Z,7.03
2023-03-16T09:48:14.524Z,6.30
2023-03-16T09:49:17.789Z,6.83
2023-03-16T09:50:38.145Z,6.80
2023-03-16T09:52:00.711Z,6.40
2023-03-16T09:53:06.020Z,6.50
2023-03-16T09:54:15.464Z,6.17
2023-03-16T09:55:25.895Z,6.40
2023-03-16T09:56:30.169Z,5.90
2023-03-16T09:57:35.443Z,6.60
2023-03-16T09:58:36.980Z,5.87
2023-03-16T09:59:38.966Z,6.53
2023-03-16T10:00:48.702Z,5.67
2023-03-16T10:02:04.286Z,6.20
2023-03-16T10:03:15.262Z,5.83
2023-03-16T10:04:19.656Z,6.20
2023-03-16T10:05:21.878Z,6.33
2023-03-16T10:06:24.776Z,6.30
2023-03-16T10:07:34.626Z,6.50
2023-03-16T10:08:56.720Z,6.40
2023-03-16T10:10:00.840Z,5.77
2023-03-16T10:11:20.960Z,6.20
2023-03-16T10:12:26.183Z,5.87
2023-03-16T10:13:36.609Z,5.83
2023-03-16T10:14:41.312Z,6.20
2023-03-16T10:15:42.790Z,5.90
2023-03-16T10:16:47.524Z,5.80
2023-03-16T10:17:54.593Z,5.57
2023-03-16T10:19:03.478Z,5.70
2023-03-16T10:20:18.343Z,6.07
2023-03-16T10:21:21.304Z,5.90
2023-03-16T10:22:27.852Z,5.90
2023-03-16T10:23:31.714Z,5.67
2023-03-16T10:24:55.280Z,6.13
2023-03-16T10:25:56.686Z,5.80
2023-03-16T10:27:00.337Z,6.07
2023-03-16T10:28:02.104Z,5.93
2023-03-16T10:29:04.111Z,5.57
2023-03-16T10:30:14.725Z,6.33
2023-03-16T10:31:18.016Z,5.10
2023-03-16T10:32:19.567Z,5.97
2023-03-16T10:33:28.187Z,6.03
2023-03-16T10:34:30.596Z,6.43
2023-03-16T10:35:34.680Z,6.00
2023-03-16T10:36:38.228Z,5.70
2023-03-16T10:37:40.493Z,6.37
2023-03-16T10:38:46.935Z,6.30
2023-03-16T10:39:48.962Z,5.87
2023-03-16T10:40:52.135Z,6.20
2023-03-16T10:41:57.313Z,6.50
2023-03-16T10:43:05.125Z,5.80
2023-03-16T10:44:14.770Z,6.17
2023-03-16T10:45:28.969Z,5.57
2023-03-16T10:46:35.949Z,5.77
2023-03-16T10:47:37.894Z,7.67
2023-03-16T10:48:40.453Z,6.40
2023-03-16T10:49:45.446Z,6.10
2023-03-16T10:50:54.838Z,5.60
2023-03-16T10:51:59.393Z,5.70
2023-03-16T10:53:01.609Z,5.47
2023-03-16T10:54:14.290Z,5.87
2023-03-16T10:55:17.491Z,5.80
2023-03-16T10:56:23.896Z,6.10
2023-03-16T10:57:26.974Z,6.07
2023-03-16T10:58:33.610Z,5.73
2023-03-16T10:59:36.873Z,6.13
2023-03-16T11:00:41.843Z,5.70
2023-03-16T11:01:45.253Z,5.93
2023-03-16T11:02:49.058Z,5.60
2023-03-16T11:03:51.598Z,6.00
2023-03-16T11:04:54.327Z,5.90
2023-03-16T11:06:03.466Z,6.17
2023-03-16T11:07:09.141Z,6.13
2023-03-16T11:08:16.490Z,5.90
2023-03-16T11:09:23.233Z,6.47
2023-03-16T11:10:40.424Z,6.13
2023-03-16T11:11:49.651Z,6.00
2023-03-16T11:12:51.438Z,5.43
2023-03-16T11:13:55.682Z,5.80
2023-03-16T11:15:07.530Z,6.20
2023-03-16T11:16:30.499Z,5.83
2023-03-16T11:17:36.405Z,6.00
2023-03-16T11:18:43.539Z,6.70
2023-03-16T11:19:51.388Z,6.13
2023-03-16T11:20:54.455Z,6.10
2023-03-16T11:21:59.128Z,5.20
2023-03-16T11:23:01.462Z,5.53
2023-03-16T11:24:04.175Z,5.67
2023-03-16T11:25:09.371Z,6.10
2023-03-16T11:26:17.564Z,5.50
2023-03-16T11:27:27.709Z,5.63
2023-03-16T11:28:37.539Z,5.83
2023-03-16T11:29:46.488Z,5.80
2023-03-16T11:30:59.150Z,5.53
2023-03-16T11:32:04.329Z,5.70
2023-03-16T11:33:09.725Z,6.33
2023-03-16T11:34:15.909Z,6.63
2023-03-16T11:35:19.569Z,6.30
2023-03-16T11:36:39.568Z,6.13
2023-03-16T11:37:51.611Z,5.90
2023-03-16T11:39:04.680Z,5.43
2023-03-16T11:40:24.846Z,6.60
2023-03-16T11:41:34.717Z,6.40
2023-03-16T11:42:42.995Z,6.77
2023-03-16T11:43:55.337Z,6.57
2023-03-16T11:45:18.884Z,6.30
2023-03-16T11:46:20.648Z,6.30
2023-03-16T11:47:40.734Z,5.93
2023-03-16T11:48:52.889Z,5.90
2023-03-16T11:49:58.806Z,6.13
2023-03-16T11:51:24.688Z,5.77
2023-03-16T11:52:35.902Z,5.40
2023-03-16T11:53:49.288Z,5.63
2023-03-16T11:55:06.325Z,5.90
2023-03-16T11:56:10.593Z,5.67
2023-03-16T11:57:18.300Z,4.80
2023-03-16T11:58:38.257Z,5.10
2023-03-16T11:59:48.975Z,5.47
2023-03-16T12:01:01.722Z,5.60
2023-03-16T12:02:09.887Z,5.97
2023-03-16T12:03:14.734Z,6.03
2023-03-16T12:04:24.641Z,6.20
2023-03-16T12:05:26.561Z,6.07
2023-03-16T12:06:30.696Z,6.00
2023-03-16T12:07:35.348Z,5.93
2023-03-16T12:08:44.946Z,6.23
2023-03-16T12:10:06.651Z,5.60
2023-03-16T12:11:25.847Z,5.67
2023-03-16T12:12:38.061Z,6.13
2023-03-16T12:13:45.923Z,4.97
2023-03-16T12:14:52.500Z,5.23
2023-03-16T12:15:56.750Z,5.40
2023-03-16T12:17:11.332Z,4.97
2023-03-16T12:18:25.018Z,5.10
2023-03-16T12:19:40.091Z,5.10
2023-03-16T12:20:45.841Z,5.63
2023-03-16T12:21:49.081Z,5.07
2023-03-16T12:22:53.671Z,5.47
2023-03-16T12:23:57.083Z,4.70
2023-03-16T12:24:58.488Z,5.07
2023-03-16T12:26:00.767Z,4.67
2023-03-16T12:27:02.515Z,5.63
2023-03-16T12:28:07.583Z,5.40
2023-03-16T12:29:31.571Z,5.00
2023-03-16T12:30:41.087Z,5.30
2023-03-16T12:32:02.226Z,4.63
2023-03-16T12:33:03.844Z,4.60
2023-03-16T12:34:08.343Z,5.33
2023-03-16T12:35:18.687Z,5.17
2023-03-16T12:36:22.746Z,4.43
2023-03-16T12:37:44.938Z,5.00
2023-03-16T12:38:53.353Z,5.30
2023-03-16T12:40:05.848Z,5.10
2023-03-16T12:41:10.294Z,5.50
2023-03-16T12:42:15.004Z,5.57
2023-03-16T12:43:35.914Z,5.23
2023-03-16T12:44:43.454Z,5.20
2023-03-16T12:45:53.532Z,5.10
2023-03-16T12:46:56.148Z,5.27
2023-03-16T12:48:00.857Z,5.13
2023-03-16T12:49:05.014Z,4.90
2023-03-16T12:50:07.466Z,4.73
2023-03-16T12:51:08.920Z,5.27
2023-03-16T12:52:12.503Z,4.70
2023-03-16T12:53:25.007Z,5.27
2023-03-16T12:54:26.396Z,4.70
2023-03-16T12:55:34.467Z,4.53
2023-03-16T12:56:43.378Z,4.50
2023-03-16T12:57:45.541Z,4.80
2023-03-16T12:58:48.591Z,4.40
2023-03-16T12:59:55.454Z,4.67
2023-03-16T13:00:59.361Z,4.30
2023-03-16T13:02:03.584Z,4.27
2023-03-16T13:03:06.377Z,4.67
2023-03-16T13:04:16.112Z,4.07
2023-03-16T13:05:18.467Z,3.87
2023-03-16T13:06:23.805Z,4.13
2023-03-16T13:07:29.615Z,4.10
2023-03-16T13:08:41.293Z,4.67
2023-03-16T13:09:44.646Z,4.17
2023-03-16T13:11:04.971Z,4.07
2023-03-16T13:12:07.114Z,4.57
2023-03-16T13:13:16.031Z,4.20
2023-03-16T13:14:33.596Z,4.40
2023-03-16T13:15:34.939Z,3.70
2023-03-16T13:16:37.518Z,4.10
2023-03-16T13:17:39.324Z,4.40
2023-03-16T13:18:44.705Z,4.30
2023-03-16T13:19:57.506Z,4.17
2023-03-16T13:21:00.832Z,4.10
2023-03-16T13:22:04.311Z,4.13
2023-03-16T13:23:18.226Z,4.57
2023-03-16T13:24:25.742Z,4.00
2023-03-16T13:25:27.180Z,4.03
2023-03-16T13:26:43.235Z,4.00
2023-03-16T13:27:49.195Z,3.93
2023-03-16T13:28:51.484Z,4.30
2023-03-16T13:29:54.912Z,3.67
2023-03-16T13:30:56.274Z,3.97
2023-03-16T13:32:02.276Z,3.77
2023-03-16T13:33:15.240Z,3.70
2023-03-16T13:34:21.372Z,3.90
2023-03-16T13:35:25.653Z,3.83
2023-03-16T13:36:28.645Z,3.93
2023-03-16T13:37:30.497Z,3.80
2023-03-16T13:38:32.400Z,3.80
2023-03-16T13:39:33.731Z,4.10
2023-03-16T13:40:37.921Z,3.40
2023-03-16T13:41:39.339Z,3.80
2023-03-16T13:42:40.763Z,3.77
2023-03-16T13:43:44.038Z,3.97
2023-03-16T13:44:45.708Z,3.87
2023-03-16T13:45:47.261Z,3.50
2023-03-16T13:46:50.771Z,3.60
2023-03-16T13:47:52.523Z,3.80
2023-03-16T13:48:53.825Z,3.60
2023-03-16T13:49:56.378Z,3.83
2023-03-16T13:50:58.572Z,3.80
2023-03-16T13:52:02.073Z,3.37
2023-03-16T13:53:04.759Z,3.60
2023-03-16T13:54:18.480Z,3.60
2023-03-16T13:55:23.460Z,3.60
2023-03-16T13:56:28.679Z,3.70
2023-03-16T13:57:32.030Z,3.63
2023-03-16T13:58:35.590Z,3.43
2023-03-16T13:59:37.207Z,3.43
2023-03-16T14:00:43.837Z,3.40
2023-03-16T14:01:46.163Z,4.10
2023-03-16T14:02:51.122Z,3.40
2023-03-16T14:03:53.624Z,3.30
2023-03-16T14:04:54.945Z,3.37
2023-03-16T14:05:57.348Z,3.70
2023-03-16T14:07:00.255Z,3.10
2023-03-16T14:08:02.115Z,3.43
2023-03-16T14:09:07.963Z,3.27
2023-03-16T14:10:10.967Z,2.87
2023-03-16T14:11:12.458Z,3.30
2023-03-16T14:12:18.320Z,3.07
2023-03-16T14:13:38.167Z,3.40
2023-03-16T14:14:41.195Z,2.90
2023-03-16T14:15:45.246Z,2.83
2023-03-16T14:16:46.646Z,3.30
2023-03-16T14:17:48.023Z,2.67
2023-03-16T14:18:52.588Z,3.07
2023-03-16T14:19:59.555Z,2.70
2023-03-16T14:21:05.125Z,3.27
2023-03-16T14:22:06.868Z,2.73
2023-03-16T14:23:34.228Z,2.60
2023-03-16T14:24:37.587Z,2.70
2023-03-16T14:25:39.631Z,2.67
2023-03-16T14:26:41.825Z,2.57
2023-03-16T14:27:44.938Z,3.00
2023-03-16T14:28:57.394Z,2.70
2023-03-16T14:30:09.481Z,2.57
2023-03-16T14:31:12.432Z,2.70
2023-03-16T14:32:28.066Z,2.40
2023-03-16T14:33:31.604Z,2.70
2023-03-16T14:34:41.955Z,2.50
2023-03-16T14:35:43.978Z,2.40
2023-03-16T14:36:45.566Z,2.37